sensor_id;sensor_type;location;lat;lon;timestamp;P1;durP1;ratioP1;P2;durP2;ratioP2
7057;SDS011;3570;43.080;25.628;2022-08-21T00:02:18;12.37;;;8.07;;
7057;SDS011;3570;43.080;25.628;2022-08-21T00:05:05;13.27;;;8.00;;
7057;SDS011;3570;43.080;25.628;2022-08-21T00:07:49;11.57;;;8.43;;
7057;SDS011;3570;43.080;25.628;2022-08-21T00:10:33;21.07;;;8.97;;
7057;SDS011;3570;43.080;25.628;2022-08-21T00:13:18;15.47;;;8.27;;
7057;SDS011;3570;43.080;25.628;2022-08-21T00:16:03;14.73;;;8.20;;
7057;SDS011;3570;43.080;25.628;2022-08-21T00:18:48;14.13;;;8.10;;
7057;SDS011;3570;43.080;25.628;2022-08-21T00:21:33;14.07;;;8.50;;
7057;SDS011;3570;43.080;25.628;2022-08-21T00:24:19;10.60;;;9.10;;
7057;SDS011;3570;43.080;25.628;2022-08-21T00:27:04;14.90;;;9.20;;
7057;SDS011;3570;43.080;25.628;2022-08-21T00:29:49;14.47;;;9.03;;
7057;SDS011;3570;43.080;25.628;2022-08-21T00:32:33;13.60;;;9.23;;
7057;SDS011;3570;43.080;25.628;2022-08-21T00:35:19;15.70;;;10.03;;
7057;SDS011;3570;43.080;25.628;2022-08-21T00:38:06;17.93;;;10.67;;
7057;SDS011;3570;43.080;25.628;2022-08-21T00:40:53;15.07;;;10.43;;
7057;SDS011;3570;43.080;25.628;2022-08-21T00:43:39;15.50;;;11.33;;
7057;SDS011;3570;43.080;25.628;2022-08-21T00:46:24;20.00;;;11.67;;
7057;SDS011;3570;43.080;25.628;2022-08-21T00:49:09;14.67;;;10.83;;
7057;SDS011;3570;43.080;25.628;2022-08-21T00:51:55;15.47;;;10.37;;
7057;SDS011;3570;43.080;25.628;2022-08-21T00:54:42;17.53;;;10.00;;
7057;SDS011;3570;43.080;25.628;2022-08-21T00:57:29;11.73;;;9.67;;
7057;SDS011;3570;43.080;25.628;2022-08-21T01:00:17;14.93;;;9.77;;
7057;SDS011;3570;43.080;25.628;2022-08-21T01:03:06;20.17;;;11.20;;
7057;SDS011;3570;43.080;25.628;2022-08-21T01:05:53;13.80;;;9.97;;
7057;SDS011;3570;43.080;25.628;2022-08-21T01:08:37;17.83;;;9.77;;
7057;SDS011;3570;43.080;25.628;2022-08-21T01:11:22;14.80;;;9.43;;
7057;SDS011;3570;43.080;25.628;2022-08-21T01:14:07;20.70;;;10.90;;
7057;SDS011;3570;43.080;25.628;2022-08-21T01:16:51;12.20;;;9.70;;
7057;SDS011;3570;43.080;25.628;2022-08-21T01:19:36;14.07;;;9.70;;
7057;SDS011;3570;43.080;25.628;2022-08-21T01:22:20;11.53;;;9.33;;
7057;SDS011;3570;43.080;25.628;2022-08-21T01:25:05;13.47;;;11.13;;
7057;SDS011;3570;43.080;25.628;2022-08-21T01:27:51;13.37;;;9.40;;
7057;SDS011;3570;43.080;25.628;2022-08-21T01:30:36;23.87;;;10.10;;
7057;SDS011;3570;43.080;25.628;2022-08-21T01:33:22;20.17;;;10.60;;
7057;SDS011;3570;43.080;25.628;2022-08-21T01:36:08;14.80;;;10.10;;
7057;SDS011;3570;43.080;25.628;2022-08-21T01:38:52;16.83;;;9.20;;
7057;SDS011;3570;43.080;25.628;2022-08-21T01:41:36;16.43;;;9.40;;
7057;SDS011;3570;43.080;25.628;2022-08-21T01:44:21;14.87;;;9.90;;
7057;SDS011;3570;43.080;25.628;2022-08-21T01:47:06;12.40;;;9.37;;
7057;SDS011;3570;43.080;25.628;2022-08-21T01:49:52;13.40;;;9.47;;
7057;SDS011;3570;43.080;25.628;2022-08-21T01:52:36;10.57;;;8.60;;
7057;SDS011;3570;43.080;25.628;2022-08-21T01:55:20;13.03;;;8.87;;
7057;SDS011;3570;43.080;25.628;2022-08-21T01:58:05;14.87;;;8.47;;
7057;SDS011;3570;43.080;25.628;2022-08-21T02:00:49;14.20;;;8.40;;
7057;SDS011;3570;43.080;25.628;2022-08-21T02:03:33;12.17;;;9.13;;
7057;SDS011;3570;43.080;25.628;2022-08-21T02:06:17;13.17;;;8.13;;
7057;SDS011;3570;43.080;25.628;2022-08-21T02:09:05;15.90;;;8.70;;
7057;SDS011;3570;43.080;25.628;2022-08-21T02:11:50;9.77;;;7.40;;
7057;SDS011;3570;43.080;25.628;2022-08-21T02:14:35;13.20;;;8.70;;
7057;SDS011;3570;43.080;25.628;2022-08-21T02:17:19;12.07;;;8.60;;
7057;SDS011;3570;43.080;25.628;2022-08-21T02:20:03;14.10;;;8.63;;
7057;SDS011;3570;43.080;25.628;2022-08-21T02:22:48;11.87;;;8.43;;
7057;SDS011;3570;43.080;25.628;2022-08-21T02:25:33;8.87;;;7.60;;
7057;SDS011;3570;43.080;25.628;2022-08-21T02:28:17;13.47;;;7.77;;
7057;SDS011;3570;43.080;25.628;2022-08-21T02:31:02;10.67;;;7.80;;
7057;SDS011;3570;43.080;25.628;2022-08-21T02:33:46;10.70;;;7.90;;
7057;SDS011;3570;43.080;25.628;2022-08-21T02:36:31;10.23;;;7.60;;
7057;SDS011;3570;43.080;25.628;2022-08-21T02:39:15;10.03;;;7.73;;
7057;SDS011;3570;43.080;25.628;2022-08-21T02:41:59;9.60;;;7.17;;
7057;SDS011;3570;43.080;25.628;2022-08-21T02:44:43;12.03;;;8.57;;
7057;SDS011;3570;43.080;25.628;2022-08-21T02:47:27;11.00;;;7.90;;
7057;SDS011;3570;43.080;25.628;2022-08-21T02:50:11;10.20;;;7.83;;
7057;SDS011;3570;43.080;25.628;2022-08-21T02:52:55;9.00;;;7.97;;
7057;SDS011;3570;43.080;25.628;2022-08-21T02:55:39;12.73;;;7.73;;
7057;SDS011;3570;43.080;25.628;2022-08-21T02:58:25;9.47;;;7.30;;
7057;SDS011;3570;43.080;25.628;2022-08-21T03:01:12;9.53;;;7.97;;
7057;SDS011;3570;43.080;25.628;2022-08-21T03:03:57;10.67;;;7.43;;
7057;SDS011;3570;43.080;25.628;2022-08-21T03:06:41;9.23;;;7.40;;
7057;SDS011;3570;43.080;25.628;2022-08-21T03:09:25;8.97;;;7.90;;
7057;SDS011;3570;43.080;25.628;2022-08-21T03:12:09;13.03;;;8.83;;
7057;SDS011;3570;43.080;25.628;2022-08-21T03:14:53;12.90;;;8.20;;
7057;SDS011;3570;43.080;25.628;2022-08-21T03:17:37;10.77;;;7.87;;
7057;SDS011;3570;43.080;25.628;2022-08-21T03:20:22;9.40;;;7.90;;
7057;SDS011;3570;43.080;25.628;2022-08-21T03:23:08;12.60;;;8.30;;
7057;SDS011;3570;43.080;25.628;2022-08-21T03:25:52;11.93;;;8.70;;
7057;SDS011;3570;43.080;25.628;2022-08-21T03:28:36;12.63;;;8.53;;
7057;SDS011;3570;43.080;25.628;2022-08-21T03:31:20;16.10;;;8.60;;
7057;SDS011;3570;43.080;25.628;2022-08-21T03:34:04;8.93;;;8.00;;
7057;SDS011;3570;43.080;25.628;2022-08-21T03:36:48;11.00;;;8.13;;
7057;SDS011;3570;43.080;25.628;2022-08-21T03:39:33;11.50;;;8.03;;
7057;SDS011;3570;43.080;25.628;2022-08-21T03:42:18;10.97;;;7.80;;
7057;SDS011;3570;43.080;25.628;2022-08-21T03:45:02;10.87;;;7.93;;
7057;SDS011;3570;43.080;25.628;2022-08-21T03:47:54;12.17;;;7.70;;
7057;SDS011;3570;43.080;25.628;2022-08-21T03:50:41;10.40;;;7.47;;
7057;SDS011;3570;43.080;25.628;2022-08-21T03:53:27;9.80;;;8.03;;
7057;SDS011;3570;43.080;25.628;2022-08-21T03:56:11;10.40;;;8.03;;
7057;SDS011;3570;43.080;25.628;2022-08-21T03:58:56;12.03;;;8.10;;
7057;SDS011;3570;43.080;25.628;2022-08-21T04:01:50;8.97;;;7.70;;
7057;SDS011;3570;43.080;25.628;2022-08-21T04:04:37;11.03;;;8.07;;
7057;SDS011;3570;43.080;25.628;2022-08-21T04:07:21;15.10;;;11.17;;
7057;SDS011;3570;43.080;25.628;2022-08-21T04:10:05;14.27;;;9.47;;
7057;SDS011;3570;43.080;25.628;2022-08-21T04:12:51;11.73;;;9.33;;
7057;SDS011;3570;43.080;25.628;2022-08-21T04:15:36;12.23;;;9.43;;
7057;SDS011;3570;43.080;25.628;2022-08-21T04:18:20;12.23;;;9.17;;
7057;SDS011;3570;43.080;25.628;2022-08-21T04:21:05;15.30;;;10.70;;
7057;SDS011;3570;43.080;25.628;2022-08-21T04:23:53;17.57;;;10.87;;
7057;SDS011;3570;43.080;25.628;2022-08-21T04:26:38;15.57;;;10.30;;
7057;SDS011;3570;43.080;25.628;2022-08-21T04:29:23;14.77;;;10.80;;
7057;SDS011;3570;43.080;25.628;2022-08-21T04:32:07;14.23;;;9.93;;
7057;SDS011;3570;43.080;25.628;2022-08-21T04:34:57;14.07;;;9.77;;
7057;SDS011;3570;43.080;25.628;2022-08-21T04:37:42;14.23;;;10.13;;
7057;SDS011;3570;43.080;25.628;2022-08-21T04:40:27;11.43;;;9.40;;
7057;SDS011;3570;43.080;25.628;2022-08-21T04:43:12;11.83;;;8.77;;
7057;SDS011;3570;43.080;25.628;2022-08-21T04:45:56;17.60;;;9.63;;
7057;SDS011;3570;43.080;25.628;2022-08-21T04:48:40;11.80;;;9.37;;
7057;SDS011;3570;43.080;25.628;2022-08-21T04:51:29;12.17;;;9.30;;
7057;SDS011;3570;43.080;25.628;2022-08-21T04:54:19;13.27;;;9.60;;
7057;SDS011;3570;43.080;25.628;2022-08-21T04:57:06;13.77;;;9.40;;
7057;SDS011;3570;43.080;25.628;2022-08-21T04:59:53;14.30;;;9.57;;
7057;SDS011;3570;43.080;25.628;2022-08-21T05:02:36;11.23;;;9.20;;
7057;SDS011;3570;43.080;25.628;2022-08-21T05:05:21;15.87;;;9.33;;
7057;SDS011;3570;43.080;25.628;2022-08-21T05:08:06;15.37;;;10.20;;
7057;SDS011;3570;43.080;25.628;2022-08-21T05:10:53;14.70;;;9.80;;
7057;SDS011;3570;43.080;25.628;2022-08-21T05:13:37;11.23;;;9.87;;
7057;SDS011;3570;43.080;25.628;2022-08-21T05:16:21;15.27;;;9.90;;
7057;SDS011;3570;43.080;25.628;2022-08-21T05:19:05;17.47;;;11.30;;
7057;SDS011;3570;43.080;25.628;2022-08-21T05:21:50;12.90;;;11.10;;
7057;SDS011;3570;43.080;25.628;2022-08-21T05:24:34;15.03;;;10.00;;
7057;SDS011;3570;43.080;25.628;2022-08-21T05:27:19;21.53;;;11.77;;
7057;SDS011;3570;43.080;25.628;2022-08-21T05:30:03;14.93;;;10.90;;
7057;SDS011;3570;43.080;25.628;2022-08-21T05:32:47;17.57;;;9.40;;
7057;SDS011;3570;43.080;25.628;2022-08-21T05:35:31;15.60;;;10.87;;
7057;SDS011;3570;43.080;25.628;2022-08-21T05:38:16;18.07;;;11.70;;
7057;SDS011;3570;43.080;25.628;2022-08-21T05:41:00;16.60;;;10.00;;
7057;SDS011;3570;43.080;25.628;2022-08-21T05:43:44;15.27;;;9.80;;
7057;SDS011;3570;43.080;25.628;2022-08-21T05:46:28;13.70;;;10.27;;
7057;SDS011;3570;43.080;25.628;2022-08-21T05:49:12;14.50;;;10.70;;
7057;SDS011;3570;43.080;25.628;2022-08-21T05:51:56;15.17;;;10.53;;
7057;SDS011;3570;43.080;25.628;2022-08-21T05:54:40;18.97;;;10.83;;
7057;SDS011;3570;43.080;25.628;2022-08-21T05:57:23;17.47;;;10.53;;
7057;SDS011;3570;43.080;25.628;2022-08-21T06:00:08;14.23;;;10.90;;
7057;SDS011;3570;43.080;25.628;2022-08-21T06:02:55;14.50;;;9.93;;
7057;SDS011;3570;43.080;25.628;2022-08-21T06:05:40;18.13;;;11.37;;
7057;SDS011;3570;43.080;25.628;2022-08-21T06:08:25;19.47;;;11.80;;
7057;SDS011;3570;43.080;25.628;2022-08-21T06:11:09;14.23;;;10.80;;
7057;SDS011;3570;43.080;25.628;2022-08-21T06:13:53;14.73;;;11.63;;
7057;SDS011;3570;43.080;25.628;2022-08-21T06:16:37;16.30;;;11.50;;
7057;SDS011;3570;43.080;25.628;2022-08-21T06:19:21;14.13;;;11.63;;
7057;SDS011;3570;43.080;25.628;2022-08-21T06:22:05;14.17;;;9.93;;
7057;SDS011;3570;43.080;25.628;2022-08-21T06:24:49;19.60;;;11.60;;
7057;SDS011;3570;43.080;25.628;2022-08-21T06:27:33;14.97;;;11.03;;
7057;SDS011;3570;43.080;25.628;2022-08-21T06:30:17;15.23;;;10.90;;
7057;SDS011;3570;43.080;25.628;2022-08-21T06:33:02;13.57;;;11.10;;
7057;SDS011;3570;43.080;25.628;2022-08-21T06:35:47;13.73;;;11.37;;
7057;SDS011;3570;43.080;25.628;2022-08-21T06:38:32;15.77;;;11.03;;
7057;SDS011;3570;43.080;25.628;2022-08-21T06:41:16;17.40;;;10.33;;
7057;SDS011;3570;43.080;25.628;2022-08-21T06:43:59;14.50;;;10.93;;
7057;SDS011;3570;43.080;25.628;2022-08-21T06:46:44;15.73;;;11.10;;
7057;SDS011;3570;43.080;25.628;2022-08-21T06:49:28;12.23;;;10.17;;
7057;SDS011;3570;43.080;25.628;2022-08-21T06:52:12;16.30;;;9.47;;
7057;SDS011;3570;43.080;25.628;2022-08-21T06:54:57;13.90;;;8.40;;
7057;SDS011;3570;43.080;25.628;2022-08-21T06:57:41;15.47;;;8.50;;
7057;SDS011;3570;43.080;25.628;2022-08-21T07:00:25;15.10;;;8.87;;
7057;SDS011;3570;43.080;25.628;2022-08-21T07:03:23;14.23;;;8.30;;
7057;SDS011;3570;43.080;25.628;2022-08-21T07:06:11;10.40;;;8.40;;
7057;SDS011;3570;43.080;25.628;2022-08-21T07:08:55;15.50;;;8.93;;
7057;SDS011;3570;43.080;25.628;2022-08-21T07:11:40;12.87;;;9.13;;
7057;SDS011;3570;43.080;25.628;2022-08-21T07:14:25;18.07;;;9.00;;
7057;SDS011;3570;43.080;25.628;2022-08-21T07:17:09;11.77;;;8.93;;
7057;SDS011;3570;43.080;25.628;2022-08-21T07:19:52;11.77;;;8.70;;
7057;SDS011;3570;43.080;25.628;2022-08-21T07:22:36;12.80;;;7.97;;
7057;SDS011;3570;43.080;25.628;2022-08-21T07:25:21;11.77;;;9.23;;
7057;SDS011;3570;43.080;25.628;2022-08-21T07:28:05;16.47;;;9.17;;
7057;SDS011;3570;43.080;25.628;2022-08-21T07:30:50;13.57;;;8.48;;
7057;SDS011;3570;43.080;25.628;2022-08-21T07:33:36;12.25;;;8.15;;
7057;SDS011;3570;43.080;25.628;2022-08-21T07:36:20;9.50;;;8.15;;
7057;SDS011;3570;43.080;25.628;2022-08-21T07:39:05;13.20;;;8.53;;
7057;SDS011;3570;43.080;25.628;2022-08-21T07:41:49;11.18;;;9.25;;
7057;SDS011;3570;43.080;25.628;2022-08-21T07:44:34;13.67;;;8.03;;
7057;SDS011;3570;43.080;25.628;2022-08-21T07:47:18;16.73;;;9.43;;
7057;SDS011;3570;43.080;25.628;2022-08-21T07:50:02;12.07;;;8.53;;
7057;SDS011;3570;43.080;25.628;2022-08-21T07:52:47;9.23;;;8.00;;
7057;SDS011;3570;43.080;25.628;2022-08-21T07:55:31;9.50;;;7.67;;
7057;SDS011;3570;43.080;25.628;2022-08-21T07:58:15;14.50;;;8.80;;
7057;SDS011;3570;43.080;25.628;2022-08-21T08:00:59;10.97;;;9.17;;
7057;SDS011;3570;43.080;25.628;2022-08-21T08:03:43;13.03;;;9.67;;
7057;SDS011;3570;43.080;25.628;2022-08-21T08:06:28;12.37;;;9.00;;
7057;SDS011;3570;43.080;25.628;2022-08-21T08:09:12;12.07;;;9.00;;
7057;SDS011;3570;43.080;25.628;2022-08-21T08:11:57;12.43;;;8.23;;
7057;SDS011;3570;43.080;25.628;2022-08-21T08:14:41;11.33;;;8.07;;
7057;SDS011;3570;43.080;25.628;2022-08-21T08:17:25;13.43;;;8.80;;
7057;SDS011;3570;43.080;25.628;2022-08-21T08:20:10;9.10;;;7.77;;
7057;SDS011;3570;43.080;25.628;2022-08-21T08:22:56;11.93;;;8.30;;
7057;SDS011;3570;43.080;25.628;2022-08-21T08:25:41;15.57;;;9.20;;
7057;SDS011;3570;43.080;25.628;2022-08-21T08:28:25;13.33;;;8.17;;
7057;SDS011;3570;43.080;25.628;2022-08-21T08:31:10;10.77;;;8.67;;
7057;SDS011;3570;43.080;25.628;2022-08-21T08:33:54;11.43;;;7.87;;
7057;SDS011;3570;43.080;25.628;2022-08-21T08:36:39;12.37;;;8.07;;
7057;SDS011;3570;43.080;25.628;2022-08-21T08:39:23;10.43;;;8.47;;
7057;SDS011;3570;43.080;25.628;2022-08-21T08:42:09;11.40;;;7.60;;
7057;SDS011;3570;43.080;25.628;2022-08-21T08:45:06;13.83;;;8.00;;
7057;SDS011;3570;43.080;25.628;2022-08-21T08:48:04;14.30;;;8.45;;
7057;SDS011;3570;43.080;25.628;2022-08-21T08:50:53;15.48;;;8.68;;
7057;SDS011;3570;43.080;25.628;2022-08-21T08:53:48;10.50;;;8.05;;
7057;SDS011;3570;43.080;25.628;2022-08-21T08:56:42;10.48;;;7.57;;
7057;SDS011;3570;43.080;25.628;2022-08-21T08:59:26;13.93;;;7.35;;
7057;SDS011;3570;43.080;25.628;2022-08-21T09:02:15;9.07;;;7.07;;
7057;SDS011;3570;43.080;25.628;2022-08-21T09:05:00;10.18;;;6.68;;
7057;SDS011;3570;43.080;25.628;2022-08-21T09:08:13;12.85;;;7.25;;
7057;SDS011;3570;43.080;25.628;2022-08-21T09:26:13;9.90;;;6.57;;
7057;SDS011;3570;43.080;25.628;2022-08-21T09:28:59;11.43;;;7.40;;
7057;SDS011;3570;43.080;25.628;2022-08-21T09:31:46;10.32;;;6.90;;
7057;SDS011;3570;43.080;25.628;2022-08-21T09:34:31;9.80;;;7.03;;
7057;SDS011;3570;43.080;25.628;2022-08-21T09:37:16;9.95;;;6.38;;
7057;SDS011;3570;43.080;25.628;2022-08-21T09:40:02;11.38;;;7.45;;
7057;SDS011;3570;43.080;25.628;2022-08-21T09:43:04;13.30;;;7.13;;
7057;SDS011;3570;43.080;25.628;2022-08-21T09:46:00;10.68;;;6.78;;
7057;SDS011;3570;43.080;25.628;2022-08-21T09:48:56;16.25;;;7.60;;
7057;SDS011;3570;43.080;25.628;2022-08-21T09:51:49;10.32;;;6.47;;
7057;SDS011;3570;43.080;25.628;2022-08-21T09:54:37;11.90;;;6.97;;
7057;SDS011;3570;43.080;25.628;2022-08-21T09:57:24;12.18;;;6.38;;
7057;SDS011;3570;43.080;25.628;2022-08-21T10:00:33;9.77;;;6.30;;
7057;SDS011;3570;43.080;25.628;2022-08-21T10:03:19;9.35;;;6.32;;
7057;SDS011;3570;43.080;25.628;2022-08-21T10:06:06;8.52;;;6.38;;
7057;SDS011;3570;43.080;25.628;2022-08-21T10:09:04;7.45;;;6.68;;
7057;SDS011;3570;43.080;25.628;2022-08-21T10:11:57;10.30;;;6.43;;
7057;SDS011;3570;43.080;25.628;2022-08-21T10:30:07;11.98;;;6.00;;
7057;SDS011;3570;43.080;25.628;2022-08-21T10:47:54;8.95;;;5.72;;
7057;SDS011;3570;43.080;25.628;2022-08-21T10:50:42;10.88;;;5.57;;
7057;SDS011;3570;43.080;25.628;2022-08-21T10:53:39;9.38;;;5.70;;
7057;SDS011;3570;43.080;25.628;2022-08-21T10:56:32;10.73;;;5.95;;
7057;SDS011;3570;43.080;25.628;2022-08-21T11:02:35;12.60;;;5.72;;
7057;SDS011;3570;43.080;25.628;2022-08-21T11:05:25;16.90;;;6.05;;
7057;SDS011;3570;43.080;25.628;2022-08-21T11:08:22;7.88;;;5.30;;
7057;SDS011;3570;43.080;25.628;2022-08-21T11:11:20;12.63;;;5.85;;
7057;SDS011;3570;43.080;25.628;2022-08-21T11:17:25;8.18;;;5.60;;
7057;SDS011;3570;43.080;25.628;2022-08-21T11:20:22;9.10;;;5.38;;
7057;SDS011;3570;43.080;25.628;2022-08-21T11:23:19;8.98;;;5.32;;
7057;SDS011;3570;43.080;25.628;2022-08-21T11:26:43;11.63;;;5.68;;
7057;SDS011;3570;43.080;25.628;2022-08-21T11:29:35;12.48;;;5.38;;
7057;SDS011;3570;43.080;25.628;2022-08-21T11:32:37;7.68;;;5.70;;
7057;SDS011;3570;43.080;25.628;2022-08-21T11:38:27;11.23;;;5.80;;
7057;SDS011;3570;43.080;25.628;2022-08-21T11:44:20;11.27;;;5.55;;
7057;SDS011;3570;43.080;25.628;2022-08-21T11:47:15;12.40;;;5.30;;
7057;SDS011;3570;43.080;25.628;2022-08-21T11:50:14;7.38;;;4.90;;
7057;SDS011;3570;43.080;25.628;2022-08-21T11:53:03;10.73;;;6.72;;
7057;SDS011;3570;43.080;25.628;2022-08-21T11:55:55;11.52;;;5.80;;
7057;SDS011;3570;43.080;25.628;2022-08-21T11:58:45;7.00;;;5.63;;
7057;SDS011;3570;43.080;25.628;2022-08-21T12:01:39;10.73;;;6.28;;
7057;SDS011;3570;43.080;25.628;2022-08-21T12:04:29;11.00;;;6.00;;
7057;SDS011;3570;43.080;25.628;2022-08-21T12:07:27;8.23;;;5.40;;
7057;SDS011;3570;43.080;25.628;2022-08-21T12:10:30;11.38;;;4.40;;
7057;SDS011;3570;43.080;25.628;2022-08-21T12:13:25;7.90;;;4.47;;
7057;SDS011;3570;43.080;25.628;2022-08-21T12:16:13;10.35;;;4.75;;
7057;SDS011;3570;43.080;25.628;2022-08-21T12:19:03;9.15;;;4.55;;
7057;SDS011;3570;43.080;25.628;2022-08-21T12:24:49;8.48;;;4.50;;
7057;SDS011;3570;43.080;25.628;2022-08-21T12:27:46;15.75;;;5.07;;
7057;SDS011;3570;43.080;25.628;2022-08-21T12:30:37;12.98;;;5.00;;
7057;SDS011;3570;43.080;25.628;2022-08-21T12:33:26;8.90;;;5.40;;
7057;SDS011;3570;43.080;25.628;2022-08-21T12:36:11;10.30;;;5.20;;
7057;SDS011;3570;43.080;25.628;2022-08-21T12:39:00;9.43;;;6.28;;
7057;SDS011;3570;43.080;25.628;2022-08-21T12:41:55;13.60;;;6.47;;
7057;SDS011;3570;43.080;25.628;2022-08-21T12:44:50;11.27;;;5.47;;
7057;SDS011;3570;43.080;25.628;2022-08-21T12:47:48;10.55;;;5.85;;
7057;SDS011;3570;43.080;25.628;2022-08-21T12:50:42;8.75;;;5.18;;
7057;SDS011;3570;43.080;25.628;2022-08-21T12:53:32;9.32;;;5.50;;
7057;SDS011;3570;43.080;25.628;2022-08-21T12:56:33;7.15;;;5.20;;
7057;SDS011;3570;43.080;25.628;2022-08-21T12:59:19;8.85;;;5.70;;
7057;SDS011;3570;43.080;25.628;2022-08-21T13:02:05;10.18;;;5.35;;
7057;SDS011;3570;43.080;25.628;2022-08-21T13:05:02;10.93;;;6.13;;
7057;SDS011;3570;43.080;25.628;2022-08-21T13:07:49;10.02;;;5.95;;
7057;SDS011;3570;43.080;25.628;2022-08-21T13:10:34;12.50;;;7.57;;
7057;SDS011;3570;43.080;25.628;2022-08-21T13:13:21;11.57;;;6.05;;
7057;SDS011;3570;43.080;25.628;2022-08-21T13:16:07;11.13;;;5.82;;
7057;SDS011;3570;43.080;25.628;2022-08-21T13:18:57;13.43;;;6.28;;
7057;SDS011;3570;43.080;25.628;2022-08-21T13:21:46;10.32;;;5.80;;
7057;SDS011;3570;43.080;25.628;2022-08-21T13:24:34;11.65;;;6.07;;
7057;SDS011;3570;43.080;25.628;2022-08-21T13:27:30;12.77;;;6.10;;
7057;SDS011;3570;43.080;25.628;2022-08-21T13:30:18;10.60;;;6.43;;
7057;SDS011;3570;43.080;25.628;2022-08-21T13:33:05;10.43;;;6.40;;
7057;SDS011;3570;43.080;25.628;2022-08-21T13:36:11;8.90;;;6.17;;
7057;SDS011;3570;43.080;25.628;2022-08-21T13:39:02;12.33;;;6.77;;
7057;SDS011;3570;43.080;25.628;2022-08-21T13:41:49;12.27;;;6.43;;
7057;SDS011;3570;43.080;25.628;2022-08-21T13:44:39;9.60;;;6.40;;
7057;SDS011;3570;43.080;25.628;2022-08-21T13:47:25;10.23;;;6.33;;
7057;SDS011;3570;43.080;25.628;2022-08-21T13:50:10;7.67;;;6.00;;
7057;SDS011;3570;43.080;25.628;2022-08-21T13:52:59;9.23;;;6.53;;
7057;SDS011;3570;43.080;25.628;2022-08-21T13:55:46;10.97;;;6.43;;
7057;SDS011;3570;43.080;25.628;2022-08-21T13:58:33;9.10;;;6.10;;
7057;SDS011;3570;43.080;25.628;2022-08-21T14:01:27;10.43;;;6.10;;
7057;SDS011;3570;43.080;25.628;2022-08-21T14:07:03;12.73;;;6.97;;
7057;SDS011;3570;43.080;25.628;2022-08-21T14:10:00;11.83;;;7.07;;
7057;SDS011;3570;43.080;25.628;2022-08-21T14:12:49;15.57;;;6.87;;
7057;SDS011;3570;43.080;25.628;2022-08-21T14:15:36;10.27;;;7.70;;
7057;SDS011;3570;43.080;25.628;2022-08-21T14:18:20;10.53;;;7.40;;
7057;SDS011;3570;43.080;25.628;2022-08-21T14:21:07;13.93;;;9.37;;
7057;SDS011;3570;43.080;25.628;2022-08-21T14:27:07;11.87;;;8.27;;
7057;SDS011;3570;43.080;25.628;2022-08-21T14:29:56;14.17;;;8.40;;
7057;SDS011;3570;43.080;25.628;2022-08-21T14:32:42;9.73;;;7.17;;
7057;SDS011;3570;43.080;25.628;2022-08-21T14:35:28;11.13;;;7.97;;
7057;SDS011;3570;43.080;25.628;2022-08-21T14:38:16;14.40;;;7.47;;
7057;SDS011;3570;43.080;25.628;2022-08-21T14:41:16;14.43;;;7.03;;
7057;SDS011;3570;43.080;25.628;2022-08-21T14:44:05;12.30;;;6.97;;
7057;SDS011;3570;43.080;25.628;2022-08-21T14:46:51;10.47;;;7.10;;
7057;SDS011;3570;43.080;25.628;2022-08-21T14:49:37;12.40;;;7.30;;
7057;SDS011;3570;43.080;25.628;2022-08-21T14:52:21;11.03;;;6.60;;
7057;SDS011;3570;43.080;25.628;2022-08-21T14:55:07;11.00;;;7.30;;
7057;SDS011;3570;43.080;25.628;2022-08-21T14:57:54;10.50;;;7.20;;
7057;SDS011;3570;43.080;25.628;2022-08-21T15:00:40;11.73;;;8.00;;
7057;SDS011;3570;43.080;25.628;2022-08-21T15:03:26;10.30;;;7.27;;
7057;SDS011;3570;43.080;25.628;2022-08-21T15:06:15;18.40;;;9.40;;
7057;SDS011;3570;43.080;25.628;2022-08-21T15:09:02;14.43;;;8.73;;
7057;SDS011;3570;43.080;25.628;2022-08-21T15:11:49;13.17;;;8.87;;
7057;SDS011;3570;43.080;25.628;2022-08-21T15:14:35;11.00;;;9.50;;
7057;SDS011;3570;43.080;25.628;2022-08-21T15:17:24;13.70;;;9.13;;
7057;SDS011;3570;43.080;25.628;2022-08-21T15:20:13;11.60;;;8.80;;
7057;SDS011;3570;43.080;25.628;2022-08-21T15:22:57;18.43;;;9.13;;
7057;SDS011;3570;43.080;25.628;2022-08-21T15:25:45;13.53;;;8.90;;
7057;SDS011;3570;43.080;25.628;2022-08-21T15:28:33;11.83;;;8.53;;
7057;SDS011;3570;43.080;25.628;2022-08-21T15:31:20;10.30;;;6.83;;
7057;SDS011;3570;43.080;25.628;2022-08-21T15:34:10;10.17;;;6.33;;
7057;SDS011;3570;43.080;25.628;2022-08-21T15:36:56;12.13;;;7.93;;
7057;SDS011;3570;43.080;25.628;2022-08-21T15:39:42;8.63;;;7.07;;
7057;SDS011;3570;43.080;25.628;2022-08-21T15:42:31;9.67;;;7.23;;
7057;SDS011;3570;43.080;25.628;2022-08-21T15:45:15;13.50;;;8.73;;
7057;SDS011;3570;43.080;25.628;2022-08-21T15:47:59;16.07;;;10.90;;
7057;SDS011;3570;43.080;25.628;2022-08-21T15:50:43;15.73;;;11.50;;
7057;SDS011;3570;43.080;25.628;2022-08-21T15:53:27;14.07;;;9.80;;
7057;SDS011;3570;43.080;25.628;2022-08-21T15:56:22;18.10;;;12.30;;
7057;SDS011;3570;43.080;25.628;2022-08-21T15:59:12;21.77;;;11.67;;
7057;SDS011;3570;43.080;25.628;2022-08-21T16:01:58;18.97;;;13.13;;
7057;SDS011;3570;43.080;25.628;2022-08-21T16:04:42;15.63;;;11.03;;
7057;SDS011;3570;43.080;25.628;2022-08-21T16:07:26;14.17;;;10.50;;
7057;SDS011;3570;43.080;25.628;2022-08-21T16:10:10;16.03;;;10.47;;
7057;SDS011;3570;43.080;25.628;2022-08-21T16:12:56;16.40;;;10.00;;
7057;SDS011;3570;43.080;25.628;2022-08-21T16:15:43;15.37;;;11.73;;
7057;SDS011;3570;43.080;25.628;2022-08-21T16:18:27;13.87;;;11.67;;
7057;SDS011;3570;43.080;25.628;2022-08-21T16:21:11;16.53;;;11.67;;
7057;SDS011;3570;43.080;25.628;2022-08-21T16:23:56;19.23;;;12.67;;
7057;SDS011;3570;43.080;25.628;2022-08-21T16:26:40;17.43;;;11.80;;
7057;SDS011;3570;43.080;25.628;2022-08-21T16:29:25;16.20;;;10.47;;
7057;SDS011;3570;43.080;25.628;2022-08-21T16:32:15;14.60;;;11.03;;
7057;SDS011;3570;43.080;25.628;2022-08-21T16:35:00;16.80;;;10.53;;
7057;SDS011;3570;43.080;25.628;2022-08-21T16:37:46;15.23;;;10.30;;
7057;SDS011;3570;43.080;25.628;2022-08-21T16:40:30;14.60;;;10.23;;
7057;SDS011;3570;43.080;25.628;2022-08-21T16:43:14;14.87;;;8.80;;
7057;SDS011;3570;43.080;25.628;2022-08-21T16:45:58;13.43;;;8.37;;
7057;SDS011;3570;43.080;25.628;2022-08-21T16:48:43;11.20;;;8.10;;
7057;SDS011;3570;43.080;25.628;2022-08-21T16:51:28;10.83;;;8.40;;
7057;SDS011;3570;43.080;25.628;2022-08-21T16:54:14;12.73;;;7.77;;
7057;SDS011;3570;43.080;25.628;2022-08-21T16:56:58;11.17;;;7.57;;
7057;SDS011;3570;43.080;25.628;2022-08-21T16:59:42;11.80;;;7.23;;
7057;SDS011;3570;43.080;25.628;2022-08-21T17:05:11;11.00;;;8.63;;
7057;SDS011;3570;43.080;25.628;2022-08-21T17:07:56;10.07;;;8.13;;
7057;SDS011;3570;43.080;25.628;2022-08-21T17:10:44;12.73;;;8.87;;
7057;SDS011;3570;43.080;25.628;2022-08-21T17:13:30;16.90;;;9.23;;
7057;SDS011;3570;43.080;25.628;2022-08-21T17:16:14;11.23;;;8.87;;
7057;SDS011;3570;43.080;25.628;2022-08-21T17:18:59;11.80;;;8.50;;
7057;SDS011;3570;43.080;25.628;2022-08-21T17:21:43;11.77;;;7.80;;
7057;SDS011;3570;43.080;25.628;2022-08-21T17:24:27;18.23;;;9.83;;
7057;SDS011;3570;43.080;25.628;2022-08-21T17:27:11;10.20;;;7.40;;
7057;SDS011;3570;43.080;25.628;2022-08-21T17:29:55;13.50;;;8.90;;
7057;SDS011;3570;43.080;25.628;2022-08-21T17:32:40;15.13;;;10.80;;
7057;SDS011;3570;43.080;25.628;2022-08-21T17:35:25;18.57;;;12.57;;
7057;SDS011;3570;43.080;25.628;2022-08-21T17:38:10;18.40;;;12.73;;
7057;SDS011;3570;43.080;25.628;2022-08-21T17:40:55;20.83;;;13.70;;
7057;SDS011;3570;43.080;25.628;2022-08-21T17:43:39;19.20;;;12.57;;
7057;SDS011;3570;43.080;25.628;2022-08-21T17:46:25;14.83;;;11.50;;
7057;SDS011;3570;43.080;25.628;2022-08-21T17:49:10;13.10;;;10.73;;
7057;SDS011;3570;43.080;25.628;2022-08-21T17:51:56;15.53;;;10.97;;
7057;SDS011;3570;43.080;25.628;2022-08-21T17:54:42;18.20;;;12.73;;